Decoded Metar for SAEZ (BUENOS AIRES/EZE in ARGENTINA) (IATA:N/A) | Meteo·Mobile Aviation Weather
aviador You're here:

SAEZ Decoded Metar

BUENOS AIRES/EZE in ARGENTINA
Report Time2018-09-24 07:00:00
UTC Time2018-09-24 07:12:20
Flight Rules vfr VFR
Wind140° at 04 kt
W.Decomp.*RWY 17: 3.7 kt HW 1.6 kt LCW
RWY 11: 3.2 kt HW 2.4 kt RCW
W.Rank140° ranks 4
Current wind is below 140° avg. (6.4)
Visibility9999 m
Phenomena:N/A
Clouds:N/A
Expected CloudBase > 800 ft AGL from Temp-Dew spread
CeilingNone
Temp11°C (ISA -4)
Dew Point09°C (88% RH)
AAT9.4°C
QNH1014 hPa
Density Alt-276 ft
Elevation66 ft
Report Wrong Elevation
Raw Report
SAEZ 240700Z 14004KT CAVOK 11/09 Q1014 NOSIG=

Extra information for SAEZ:More info

Metar Taf Metar & Taf Last 4 Metars F.Rules Stats Wind Profile Meteogram Temp Stats Airport Information Weather charts Add Link Nearby VenuesMetar ALERT Operation Metar Decoded Social comments